createdAt,value
2019-01-12T00:00:50.343Z,0.31
2019-01-12T00:02:50.395Z,0.31
2019-01-12T00:04:49.699Z,0.31
2019-01-12T00:06:49.933Z,0.32
2019-01-12T00:08:49.978Z,0.33
2019-01-12T00:10:49.967Z,0.33
2019-01-12T00:12:49.987Z,0.32
2019-01-12T00:14:50.009Z,0.35
2019-01-12T00:16:50.179Z,0.36
2019-01-12T00:18:50.239Z,0.37
2019-01-12T00:20:50.353Z,0.37
2019-01-12T00:22:50.333Z,0.37
2019-01-12T00:24:50.269Z,0.36
2019-01-12T00:26:50.539Z,0.36
2019-01-12T00:28:50.498Z,0.38
2019-01-12T00:30:50.540Z,0.40
2019-01-12T00:32:50.491Z,0.40
2019-01-12T00:34:49.882Z,0.40
2019-01-12T00:36:50.179Z,0.41
2019-01-12T00:38:50.184Z,0.41
2019-01-12T00:40:50.199Z,0.42
2019-01-12T00:42:50.219Z,0.43
2019-01-12T00:44:50.288Z,0.44
2019-01-12T00:46:50.525Z,0.43
2019-01-12T00:48:50.497Z,0.44
2019-01-12T00:50:50.542Z,0.45
2019-01-12T00:52:50.564Z,0.45
2019-01-12T00:54:50.579Z,0.44
2019-01-12T00:56:49.848Z,0.43
2019-01-12T00:58:49.886Z,0.45
2019-01-12T01:00:49.969Z,0.45
2019-01-12T01:02:49.905Z,0.45
2019-01-12T01:04:50.166Z,0.45
2019-01-12T01:06:50.328Z,0.44
2019-01-12T01:08:50.330Z,0.45
2019-01-12T01:10:50.332Z,0.46
2019-01-12T01:12:50.348Z,0.47
2019-01-12T01:14:50.296Z,0.47
2019-01-12T01:16:50.510Z,0.47
2019-01-12T01:18:50.491Z,0.47
2019-01-12T01:20:50.494Z,0.50
2019-01-12T01:22:50.570Z,0.51
2019-01-12T01:24:50.512Z,0.50
2019-01-12T01:26:49.744Z,0.51
2019-01-12T01:28:49.708Z,0.49
2019-01-12T01:30:49.835Z,0.49
2019-01-12T01:32:49.795Z,0.48
2019-01-12T01:34:50.253Z,0.48
2019-01-12T01:36:50.445Z,0.48
2019-01-12T01:38:50.571Z,0.48
2019-01-12T01:40:50.538Z,0.49
2019-01-12T01:42:50.546Z,0.51
2019-01-12T01:44:50.448Z,0.50
2019-01-12T01:46:50.614Z,0.50
2019-01-12T01:48:50.558Z,0.52
2019-01-12T01:50:50.616Z,0.52
2019-01-12T01:52:50.586Z,0.52
2019-01-12T01:54:53.431Z,0.54
2019-01-12T01:56:49.822Z,0.53
2019-01-12T01:58:49.925Z,0.53
2019-01-12T02:00:49.984Z,0.53
2019-01-12T02:02:50.017Z,0.53
2019-01-12T02:04:50.341Z,0.55
2019-01-12T02:06:50.483Z,0.55
2019-01-12T02:08:50.621Z,0.55
2019-01-12T02:10:50.587Z,0.57
2019-01-12T02:12:50.692Z,0.58
2019-01-12T02:14:50.738Z,0.58
2019-01-12T02:16:50.283Z,0.58
2019-01-12T02:18:50.332Z,0.59
2019-01-12T02:20:50.378Z,0.58
2019-01-12T02:22:50.387Z,0.59
2019-01-12T02:24:50.422Z,0.59
2019-01-12T02:26:50.711Z,0.59
2019-01-12T02:28:50.034Z,0.59
2019-01-12T02:30:50.043Z,0.60
2019-01-12T02:32:50.160Z,0.61
2019-01-12T02:34:50.357Z,0.62
2019-01-12T02:36:50.500Z,0.63
2019-01-12T02:38:50.570Z,0.64
2019-01-12T02:40:50.531Z,0.65
2019-01-12T02:42:50.574Z,0.65
2019-01-12T02:44:50.596Z,0.66
2019-01-12T02:46:49.870Z,0.67
2019-01-12T02:48:49.813Z,0.68
2019-01-12T02:50:49.867Z,0.70
2019-01-12T02:52:50.037Z,0.72
2019-01-12T02:54:50.021Z,0.73
2019-01-12T02:56:50.283Z,0.73
2019-01-12T02:58:50.356Z,0.73
2019-01-12T03:00:50.409Z,0.73
2019-01-12T03:02:50.532Z,0.74
2019-01-12T03:04:49.703Z,0.73
2019-01-12T03:06:49.979Z,0.71
2019-01-12T03:08:50.573Z,0.71
2019-01-12T03:10:50.529Z,0.71
2019-01-12T03:12:50.606Z,0.70
2019-01-12T03:14:50.671Z,0.70
2019-01-12T03:16:49.866Z,0.70
2019-01-12T03:18:49.919Z,0.69
2019-01-12T03:20:49.921Z,0.68
2019-01-12T03:22:49.951Z,0.68
2019-01-12T03:24:50.016Z,0.68
2019-01-12T03:26:50.262Z,0.69
2019-01-12T03:28:50.304Z,0.69
2019-01-12T03:30:50.365Z,0.69
2019-01-12T03:32:50.397Z,0.72
2019-01-12T03:34:49.947Z,0.72
2019-01-12T03:36:50.184Z,0.72
2019-01-12T03:38:50.333Z,0.72
2019-01-12T03:40:50.389Z,0.71
2019-01-12T03:42:50.399Z,0.70
2019-01-12T03:44:50.423Z,0.67
2019-01-12T03:46:50.531Z,0.67
2019-01-12T03:48:50.585Z,0.67
2019-01-12T03:50:50.614Z,0.67
2019-01-12T03:52:50.674Z,0.66
2019-01-12T03:54:50.659Z,0.66
2019-01-12T03:56:49.870Z,0.67
2019-01-12T03:58:49.899Z,0.67
2019-01-12T04:00:49.920Z,0.67
2019-01-12T04:02:49.912Z,0.68
2019-01-12T04:04:50.185Z,0.70
2019-01-12T04:06:50.529Z,0.70
2019-01-12T04:08:50.546Z,0.72
2019-01-12T04:10:50.572Z,0.73
2019-01-12T04:12:50.567Z,0.73
2019-01-12T04:14:50.534Z,0.73
2019-01-12T04:16:49.703Z,0.74
2019-01-12T04:18:49.801Z,0.75
2019-01-12T04:20:49.812Z,0.75
2019-01-12T04:22:49.890Z,0.75
2019-01-12T04:24:49.959Z,0.76
2019-01-12T04:26:50.162Z,0.78
2019-01-12T04:28:50.145Z,0.78
2019-01-12T04:30:50.156Z,0.78
2019-01-12T04:32:50.171Z,0.79
2019-01-12T04:34:50.463Z,0.80
2019-01-12T04:36:49.792Z,0.79
2019-01-12T04:38:49.782Z,0.79
2019-01-12T04:40:49.926Z,0.79
2019-01-12T04:42:50.059Z,0.81
2019-01-12T04:44:50.155Z,0.82
2019-01-12T04:46:50.303Z,0.81
2019-01-12T04:48:50.328Z,0.83
2019-01-12T04:50:50.362Z,0.84
2019-01-12T04:52:50.372Z,0.85
2019-01-12T04:54:50.374Z,0.84
2019-01-12T04:56:50.539Z,0.85
2019-01-12T04:58:50.692Z,0.89
2019-01-12T05:00:49.726Z,0.92
2019-01-12T05:02:49.805Z,0.92
2019-01-12T05:04:50.138Z,0.94
2019-01-12T05:06:50.465Z,0.95
2019-01-12T05:08:50.517Z,0.96
2019-01-12T05:10:50.503Z,0.98
2019-01-12T05:12:50.510Z,1.00
2019-01-12T05:14:50.481Z,1.01
2019-01-12T05:16:49.721Z,1.02
2019-01-12T05:18:49.703Z,1.03
2019-01-12T05:20:49.726Z,1.04
2019-01-12T05:22:49.718Z,1.06
2019-01-12T05:24:49.766Z,1.06
2019-01-12T05:26:50.489Z,1.07
2019-01-12T05:28:50.471Z,1.09
2019-01-12T05:30:50.405Z,1.11
2019-01-12T05:32:50.505Z,1.12
2019-01-12T05:34:49.792Z,1.12
2019-01-12T05:36:50.175Z,1.12
2019-01-12T05:38:50.164Z,1.12
2019-01-12T05:40:50.167Z,1.11
2019-01-12T05:42:50.242Z,1.11
2019-01-12T05:44:50.266Z,1.11
2019-01-12T05:46:50.468Z,1.10
2019-01-12T05:48:50.443Z,1.10
2019-01-12T05:50:50.463Z,1.10
2019-01-12T05:52:50.524Z,1.11
2019-01-12T05:54:50.523Z,1.09
2019-01-12T05:56:49.979Z,1.08
2019-01-12T05:58:49.971Z,1.05
2019-01-12T06:00:49.964Z,1.05
2019-01-12T06:02:49.932Z,1.06
2019-01-12T06:04:50.318Z,1.06
2019-01-12T06:06:50.663Z,1.06
2019-01-12T06:08:49.700Z,1.07
2019-01-12T06:10:49.751Z,1.07
2019-01-12T06:12:49.774Z,1.07
2019-01-12T06:14:49.813Z,1.09
2019-01-12T06:16:50.080Z,1.09
2019-01-12T06:18:50.096Z,1.07
2019-01-12T06:20:50.057Z,1.08
2019-01-12T06:22:50.131Z,1.10
2019-01-12T06:24:50.163Z,1.11
2019-01-12T06:26:50.321Z,1.11
2019-01-12T06:28:50.322Z,1.12
2019-01-12T06:30:50.285Z,1.12
2019-01-12T06:32:50.291Z,1.12
2019-01-12T06:34:50.501Z,1.14
2019-01-12T06:36:50.332Z,1.15
2019-01-12T06:38:50.331Z,1.15
2019-01-12T06:40:50.367Z,1.14
2019-01-12T06:42:50.358Z,1.14
2019-01-12T06:44:50.410Z,1.14
2019-01-12T06:46:50.636Z,1.17
2019-01-12T06:48:50.679Z,1.18
2019-01-12T06:50:50.662Z,1.18
2019-01-12T06:52:49.676Z,1.20
2019-01-12T06:54:49.790Z,1.20
2019-01-12T06:56:50.037Z,1.21
2019-01-12T06:58:50.047Z,1.22
2019-01-12T07:00:50.108Z,1.24
2019-01-12T07:02:50.134Z,1.24
2019-01-12T07:04:50.309Z,1.26
2019-01-12T07:06:50.643Z,1.26
2019-01-12T07:08:50.674Z,1.26
2019-01-12T07:10:49.808Z,1.25
2019-01-12T07:12:49.798Z,1.25
2019-01-12T07:14:49.859Z,1.25
2019-01-12T07:16:50.094Z,1.26
2019-01-12T07:18:50.106Z,1.28
2019-01-12T07:20:50.054Z,1.28
2019-01-12T07:22:50.051Z,1.26
2019-01-12T07:24:50.107Z,1.26
2019-01-12T07:26:50.218Z,1.26
2019-01-12T07:28:50.192Z,1.28
2019-01-12T07:30:50.236Z,1.27
2019-01-12T07:32:50.242Z,1.27
2019-01-12T07:34:50.619Z,1.27
2019-01-12T07:36:49.855Z,1.26
2019-01-12T07:38:49.897Z,1.27
2019-01-12T07:40:49.972Z,1.27
2019-01-12T07:42:49.928Z,1.28
2019-01-12T07:44:49.893Z,1.29
2019-01-12T07:46:50.196Z,1.30
2019-01-12T07:48:50.304Z,1.31
2019-01-12T07:50:50.341Z,1.33
2019-01-12T07:52:50.338Z,1.36
2019-01-12T07:54:50.312Z,1.39
2019-01-12T07:56:50.482Z,1.41
2019-01-12T07:58:50.504Z,1.42
2019-01-12T08:00:50.508Z,1.43
2019-01-12T08:02:50.446Z,1.45
2019-01-12T08:04:49.971Z,1.45
2019-01-12T08:06:50.152Z,1.47
2019-01-12T08:08:50.115Z,1.47
2019-01-12T08:10:50.120Z,1.49
2019-01-12T08:12:50.213Z,1.50
2019-01-12T08:14:50.253Z,1.51
2019-01-12T08:16:50.575Z,1.53
2019-01-12T08:18:50.529Z,1.56
2019-01-12T08:20:50.527Z,1.59
2019-01-12T08:22:50.487Z,1.61
2019-01-12T08:24:50.502Z,1.64
2019-01-12T08:26:50.637Z,1.65
2019-01-12T08:28:50.557Z,1.66
2019-01-12T08:30:50.617Z,1.66
2019-01-12T08:32:50.614Z,1.68
2019-01-12T08:34:50.103Z,1.70
2019-01-12T08:36:50.258Z,1.72
2019-01-12T08:38:50.164Z,1.73
2019-01-12T08:40:50.214Z,1.75
2019-01-12T08:42:50.159Z,1.75
2019-01-12T08:44:50.172Z,1.78
2019-01-12T08:46:50.362Z,1.81
2019-01-12T08:48:50.421Z,1.83
2019-01-12T08:50:50.474Z,1.86
2019-01-12T08:52:50.538Z,1.86
2019-01-12T08:54:50.513Z,1.88
2019-01-12T08:56:49.736Z,1.92
2019-01-12T08:58:49.841Z,1.93
2019-01-12T09:00:49.812Z,1.93
2019-01-12T09:02:49.965Z,1.91
2019-01-12T09:04:50.248Z,1.92
2019-01-12T09:06:50.432Z,1.93
2019-01-12T09:08:50.399Z,1.92
2019-01-12T09:10:50.464Z,1.92
2019-01-12T09:12:50.455Z,1.92
2019-01-12T09:14:50.426Z,1.92
2019-01-12T09:16:49.759Z,1.89
2019-01-12T09:18:49.826Z,1.86
2019-01-12T09:20:49.858Z,1.84
2019-01-12T09:22:49.920Z,1.82
2019-01-12T09:24:49.954Z,1.82
2019-01-12T09:26:50.139Z,1.82
2019-01-12T09:28:50.105Z,1.83
2019-01-12T09:30:50.131Z,1.82
2019-01-12T09:32:50.216Z,1.83
2019-01-12T09:34:50.453Z,1.84
2019-01-12T09:36:50.681Z,1.87
2019-01-12T09:38:49.732Z,1.89
2019-01-12T09:40:49.812Z,1.92
2019-01-12T09:42:49.787Z,1.93
2019-01-12T09:44:49.785Z,1.97
2019-01-12T09:46:49.991Z,1.98
2019-01-12T09:48:49.976Z,1.98
2019-01-12T09:50:49.928Z,1.98
2019-01-12T09:52:49.936Z,1.98
2019-01-12T09:54:49.936Z,1.98
2019-01-12T09:56:52.308Z,1.99
2019-01-12T09:58:50.314Z,2.02
2019-01-12T10:00:50.301Z,2.03
2019-01-12T10:02:50.407Z,2.02
2019-01-12T10:04:50.578Z,2.01
2019-01-12T10:06:49.815Z,1.99
2019-01-12T10:08:49.903Z,1.98
2019-01-12T10:10:49.914Z,1.97
2019-01-12T10:12:49.928Z,1.97
2019-01-12T10:14:49.937Z,1.99
2019-01-12T10:16:50.151Z,2.01
2019-01-12T10:18:50.091Z,2.02
2019-01-12T10:20:50.045Z,2.02
2019-01-12T10:22:50.074Z,2.05
2019-01-12T10:24:50.069Z,2.06
2019-01-12T10:26:50.266Z,2.06
2019-01-12T10:28:50.335Z,2.05
2019-01-12T10:30:50.350Z,2.05
2019-01-12T10:32:50.326Z,2.05
2019-01-12T10:34:50.549Z,2.06
2019-01-12T10:36:49.742Z,2.08
2019-01-12T10:38:49.702Z,2.10
2019-01-12T10:40:49.782Z,2.11
2019-01-12T10:42:49.807Z,2.12
2019-01-12T10:44:49.864Z,2.16
2019-01-12T10:46:50.263Z,2.18
2019-01-12T10:48:50.279Z,2.19
2019-01-12T10:50:50.216Z,2.19
2019-01-12T10:52:50.230Z,2.26
2019-01-12T10:54:50.211Z,2.28
2019-01-12T10:56:50.443Z,2.31
2019-01-12T10:58:50.452Z,2.30
2019-01-12T11:00:50.495Z,2.30
2019-01-12T11:02:50.548Z,2.29
2019-01-12T11:04:49.909Z,2.27
2019-01-12T11:06:49.949Z,2.24
2019-01-12T11:08:49.923Z,2.24
2019-01-12T11:10:50.029Z,2.22
2019-01-12T11:12:50.025Z,2.22
2019-01-12T11:14:50.259Z,2.21
2019-01-12T11:16:50.494Z,2.21
2019-01-12T11:18:50.451Z,2.23
2019-01-12T11:20:50.440Z,2.23
2019-01-12T11:22:50.417Z,2.29
2019-01-12T11:24:50.389Z,2.28
2019-01-12T11:26:50.623Z,2.28
2019-01-12T11:28:50.583Z,2.28
2019-01-12T11:30:50.592Z,2.28
2019-01-12T11:32:50.657Z,2.31
2019-01-12T11:34:50.001Z,2.32
2019-01-12T11:36:50.191Z,2.34
2019-01-12T11:38:50.283Z,2.36
2019-01-12T11:40:50.315Z,2.36
2019-01-12T11:42:50.435Z,2.36
2019-01-12T11:44:50.427Z,2.36
2019-01-12T11:46:50.631Z,2.36
2019-01-12T11:48:50.501Z,2.35
2019-01-12T11:50:50.550Z,2.35
2019-01-12T11:52:50.536Z,2.36
2019-01-12T11:54:50.471Z,2.38
2019-01-12T11:56:50.650Z,2.39
2019-01-12T11:58:50.666Z,2.39
2019-01-12T12:00:49.698Z,2.37
2019-01-12T12:02:49.756Z,2.36
2019-01-12T12:04:50.161Z,2.38
2019-01-12T12:06:50.381Z,2.39
2019-01-12T12:08:50.340Z,2.37
2019-01-12T12:10:50.320Z,2.33
2019-01-12T12:12:50.250Z,2.33
2019-01-12T12:14:50.226Z,2.33
2019-01-12T12:16:50.497Z,2.32
2019-01-12T12:18:50.553Z,2.32
2019-01-12T12:20:50.626Z,2.32
2019-01-12T12:22:50.527Z,2.30
2019-01-12T12:24:50.563Z,2.33
2019-01-12T12:26:49.744Z,2.33
2019-01-12T12:28:49.860Z,2.33
2019-01-12T12:30:49.860Z,2.33
2019-01-12T12:32:49.902Z,2.36
2019-01-12T12:34:50.222Z,2.36
2019-01-12T12:36:50.396Z,2.36
2019-01-12T12:38:50.405Z,2.36
2019-01-12T12:40:50.448Z,2.36
2019-01-12T12:42:50.480Z,2.35
2019-01-12T12:44:50.393Z,2.34
2019-01-12T12:46:50.633Z,2.34
2019-01-12T12:48:50.563Z,2.34
2019-01-12T12:50:50.561Z,2.34
2019-01-12T12:52:50.488Z,2.34
2019-01-12T12:54:50.495Z,2.34
2019-01-12T12:56:50.660Z,2.34
2019-01-12T12:58:49.742Z,2.33
2019-01-12T13:00:49.715Z,2.32
2019-01-12T13:02:49.707Z,2.33
2019-01-12T13:04:50.181Z,2.34
2019-01-12T13:06:50.367Z,2.34
2019-01-12T13:08:50.385Z,2.34
2019-01-12T13:10:50.471Z,2.34
2019-01-12T13:12:50.448Z,2.33
2019-01-12T13:14:50.428Z,2.31
2019-01-12T13:16:50.580Z,2.31
2019-01-12T13:18:50.572Z,2.31
2019-01-12T13:20:50.549Z,2.31
2019-01-12T13:22:50.675Z,2.30
2019-01-12T13:24:50.677Z,2.28
2019-01-12T13:26:49.891Z,2.27
2019-01-12T13:28:50.006Z,2.25
2019-01-12T13:30:49.936Z,2.24
2019-01-12T13:32:49.862Z,2.24
2019-01-12T13:34:50.373Z,2.24
2019-01-12T13:36:50.550Z,2.23
2019-01-12T13:38:50.552Z,2.23
2019-01-12T13:40:50.592Z,2.23
2019-01-12T13:42:49.695Z,2.24
2019-01-12T13:44:49.798Z,2.25
2019-01-12T13:46:49.987Z,2.27
2019-01-12T13:48:49.963Z,2.28
2019-01-12T13:50:49.955Z,2.31
2019-01-12T13:52:49.982Z,2.30
2019-01-12T13:54:49.958Z,2.31
2019-01-12T13:56:50.219Z,2.32
2019-01-12T13:58:50.214Z,2.32
2019-01-12T14:00:50.251Z,2.32
2019-01-12T14:02:50.241Z,2.32
2019-01-12T14:04:50.484Z,2.33
2019-01-12T14:06:50.640Z,2.34
2019-01-12T14:08:49.817Z,2.34
2019-01-12T14:10:49.853Z,2.35
2019-01-12T14:12:49.869Z,2.35
2019-01-12T14:14:49.959Z,2.37
2019-01-12T14:16:50.141Z,2.37
2019-01-12T14:18:50.191Z,2.34
2019-01-12T14:20:50.192Z,2.32
2019-01-12T14:22:50.220Z,2.31
2019-01-12T14:24:50.205Z,2.32
2019-01-12T14:26:50.416Z,2.32
2019-01-12T14:28:50.488Z,2.32
2019-01-12T14:30:50.488Z,2.32
2019-01-12T14:32:50.668Z,2.33
2019-01-12T14:34:50.012Z,2.34
2019-01-12T14:36:50.293Z,2.32
2019-01-12T14:38:50.305Z,2.32
2019-01-12T14:40:50.333Z,2.32
2019-01-12T14:42:50.347Z,2.33
2019-01-12T14:44:50.368Z,2.34
2019-01-12T14:46:50.510Z,2.35
2019-01-12T14:48:50.548Z,2.34
2019-01-12T14:50:50.499Z,2.34
2019-01-12T14:52:50.474Z,2.34
2019-01-12T14:54:50.463Z,2.35
2019-01-12T14:56:49.862Z,2.35
2019-01-12T14:58:49.866Z,2.36
2019-01-12T15:00:49.940Z,2.38
2019-01-12T15:02:50.073Z,2.38
2019-01-12T15:04:50.530Z,2.37
2019-01-12T15:06:49.907Z,2.36
2019-01-12T15:08:49.974Z,2.37
2019-01-12T15:10:49.961Z,2.39
2019-01-12T15:12:50.007Z,2.40
2019-01-12T15:14:49.966Z,2.40
2019-01-12T15:16:50.215Z,2.40
2019-01-12T15:18:50.242Z,2.39
2019-01-12T15:20:50.230Z,2.39
2019-01-12T15:22:50.257Z,2.40
2019-01-12T15:24:50.302Z,2.40
2019-01-12T15:26:50.492Z,2.39
2019-01-12T15:28:50.484Z,2.39
2019-01-12T15:30:50.527Z,2.38
2019-01-12T15:32:50.630Z,2.38
2019-01-12T15:34:50.145Z,2.38
2019-01-12T15:36:50.320Z,2.37
2019-01-12T15:38:50.411Z,2.38
2019-01-12T15:40:50.341Z,2.39
2019-01-12T15:42:50.361Z,2.39
2019-01-12T15:44:50.335Z,2.38
2019-01-12T15:46:50.526Z,2.37
2019-01-12T15:48:50.488Z,2.35
2019-01-12T15:50:50.488Z,2.31
2019-01-12T15:52:50.555Z,2.31
2019-01-12T15:54:51.333Z,2.30
2019-01-12T15:56:49.694Z,2.30
2019-01-12T15:58:50.628Z,2.27
2019-01-12T16:00:50.670Z,2.26
2019-01-12T16:02:50.661Z,2.24
2019-01-12T16:04:50.053Z,2.22
2019-01-12T16:06:50.325Z,2.21
2019-01-12T16:08:50.407Z,2.20
2019-01-12T16:10:50.408Z,2.20
2019-01-12T16:12:50.441Z,2.18
2019-01-12T16:14:50.405Z,2.18
2019-01-12T16:16:50.674Z,2.15
2019-01-12T16:18:50.687Z,2.15
2019-01-12T16:20:49.807Z,2.14
2019-01-12T16:22:49.752Z,2.14
2019-01-12T16:24:49.820Z,2.14
2019-01-12T16:26:50.026Z,2.13
2019-01-12T16:28:50.207Z,2.13
2019-01-12T16:30:50.323Z,2.13
2019-01-12T16:32:50.371Z,2.11
2019-01-12T16:34:49.686Z,2.11
2019-01-12T16:36:51.456Z,2.10
2019-01-12T16:38:50.449Z,2.09
2019-01-12T16:40:50.373Z,2.08
2019-01-12T16:42:50.484Z,2.07
2019-01-12T16:44:50.457Z,2.05
2019-01-12T16:46:50.649Z,2.05
2019-01-12T16:48:49.702Z,1.99
2019-01-12T16:50:49.683Z,1.95
2019-01-12T16:52:49.801Z,1.90
2019-01-12T16:54:49.805Z,1.85
2019-01-12T16:56:50.131Z,1.82
2019-01-12T16:58:50.166Z,1.75
2019-01-12T17:00:50.130Z,1.70
2019-01-12T17:02:50.077Z,1.65
2019-01-12T17:04:50.250Z,1.65
2019-01-12T17:06:50.388Z,1.62
2019-01-12T17:08:50.411Z,1.62
2019-01-12T17:10:50.420Z,1.62
2019-01-12T17:12:50.435Z,1.63
2019-01-12T17:14:50.436Z,1.63
2019-01-12T17:16:50.657Z,1.65
2019-01-12T17:18:50.699Z,1.66
2019-01-12T17:20:50.632Z,1.68
2019-01-12T17:22:50.674Z,1.67
2019-01-12T17:24:50.666Z,1.67
2019-01-12T17:26:49.868Z,1.66
2019-01-12T17:28:49.980Z,1.65
2019-01-12T17:30:49.999Z,1.65
2019-01-12T17:32:49.917Z,1.65
2019-01-12T17:34:50.124Z,1.65
2019-01-12T17:36:50.410Z,1.66
2019-01-12T17:38:50.401Z,1.65
2019-01-12T17:40:50.344Z,1.65
2019-01-12T17:42:50.263Z,1.65
2019-01-12T17:44:50.267Z,1.65
2019-01-12T17:46:50.452Z,1.65
2019-01-12T17:48:50.452Z,1.65
2019-01-12T17:50:50.382Z,1.65
2019-01-12T17:52:50.489Z,1.65
2019-01-12T17:54:50.395Z,1.66
2019-01-12T17:56:50.733Z,1.66
2019-01-12T17:58:50.681Z,1.67
2019-01-12T18:00:49.720Z,1.67
2019-01-12T18:02:49.740Z,1.66
2019-01-12T18:04:50.189Z,1.66
2019-01-12T18:06:50.418Z,1.67
2019-01-12T18:08:50.394Z,1.67
2019-01-12T18:10:50.359Z,1.68
2019-01-12T18:12:50.401Z,1.70
2019-01-12T18:14:50.427Z,1.71
2019-01-12T18:16:50.541Z,1.73
2019-01-12T18:18:50.510Z,1.76
2019-01-12T18:20:50.444Z,1.80
2019-01-12T18:22:50.512Z,1.83
2019-01-12T18:24:50.465Z,1.91
2019-01-12T18:26:49.795Z,1.93
2019-01-12T18:28:51.932Z,2.00
2019-01-12T18:30:49.903Z,2.04
2019-01-12T18:32:49.970Z,2.06
2019-01-12T18:34:50.269Z,2.09
2019-01-12T18:36:50.446Z,2.09
2019-01-12T18:38:50.543Z,2.11
2019-01-12T18:40:50.475Z,2.12
2019-01-12T18:42:50.407Z,2.15
2019-01-12T18:44:50.375Z,2.17
2019-01-12T18:46:49.730Z,2.18
2019-01-12T18:48:49.693Z,2.17
2019-01-12T18:50:50.684Z,2.17
2019-01-12T18:52:49.797Z,2.19
2019-01-12T18:54:49.763Z,2.19
2019-01-12T18:56:50.035Z,2.19
2019-01-12T18:58:49.949Z,2.17
2019-01-12T19:00:49.974Z,2.17
2019-01-12T19:02:49.978Z,2.17
2019-01-12T19:04:50.227Z,2.17
2019-01-12T19:06:50.491Z,2.21
2019-01-12T19:08:50.395Z,2.20
2019-01-12T19:10:50.416Z,2.25
2019-01-12T19:12:50.403Z,2.26
2019-01-12T19:14:50.429Z,2.22
2019-01-12T19:16:50.532Z,2.23
2019-01-12T19:18:50.656Z,2.23
2019-01-12T19:20:50.645Z,2.23
2019-01-12T19:22:50.673Z,2.23
2019-01-12T19:24:50.719Z,2.23
2019-01-12T19:26:49.938Z,2.24
2019-01-12T19:28:49.968Z,2.26
2019-01-12T19:30:49.953Z,2.28
2019-01-12T19:32:49.985Z,2.29
2019-01-12T19:34:50.367Z,2.29
2019-01-12T19:36:49.745Z,2.29
2019-01-12T19:38:49.816Z,2.29
2019-01-12T19:40:49.794Z,2.23
2019-01-12T19:42:49.788Z,2.19
2019-01-12T19:44:49.702Z,2.16
2019-01-12T19:46:49.913Z,2.10
2019-01-12T19:48:49.899Z,2.08
2019-01-12T19:50:49.941Z,1.99
2019-01-12T19:52:49.922Z,1.94
2019-01-12T19:54:49.914Z,1.90
2019-01-12T19:56:50.106Z,1.85
2019-01-12T19:58:50.022Z,1.81
2019-01-12T20:00:49.989Z,1.75
2019-01-12T20:02:49.967Z,1.71
2019-01-12T20:04:50.250Z,1.67
2019-01-12T20:06:50.395Z,1.63
2019-01-12T20:08:50.441Z,1.57
2019-01-12T20:10:50.472Z,1.53
2019-01-12T20:12:50.423Z,1.49
2019-01-12T20:14:50.462Z,1.47
2019-01-12T20:16:49.697Z,1.46
2019-01-12T20:18:49.738Z,1.45
2019-01-12T20:20:49.896Z,1.45
2019-01-12T20:22:50.647Z,1.44
2019-01-12T20:24:50.648Z,1.43
2019-01-12T20:26:49.882Z,1.44
2019-01-12T20:28:50.007Z,1.44
2019-01-12T20:30:49.976Z,1.44
2019-01-12T20:32:49.914Z,1.44
2019-01-12T20:34:50.554Z,1.45
2019-01-12T20:36:49.831Z,1.46
2019-01-12T20:38:49.821Z,1.46
2019-01-12T20:40:49.837Z,1.48
2019-01-12T20:42:49.820Z,1.50
2019-01-12T20:44:49.854Z,1.50
2019-01-12T20:46:50.037Z,1.51
2019-01-12T20:48:50.077Z,1.55
2019-01-12T20:50:50.428Z,1.59
2019-01-12T20:52:50.523Z,1.60
2019-01-12T20:54:50.317Z,1.64
2019-01-12T20:56:50.608Z,1.64
2019-01-12T20:58:49.865Z,1.67
2019-01-12T21:00:49.927Z,1.70
2019-01-12T21:02:49.997Z,1.73
2019-01-12T21:04:50.210Z,1.75
2019-01-12T21:06:50.391Z,1.76
2019-01-12T21:08:50.461Z,1.77
2019-01-12T21:10:50.403Z,1.79
2019-01-12T21:12:50.388Z,1.80
2019-01-12T21:14:50.141Z,1.80
2019-01-12T21:16:50.357Z,1.84
2019-01-12T21:18:50.301Z,1.86
2019-01-12T21:20:50.278Z,1.88
2019-01-12T21:22:50.277Z,1.89
2019-01-12T21:24:50.188Z,1.91
2019-01-12T21:26:50.373Z,1.93
2019-01-12T21:28:50.487Z,1.96
2019-01-12T21:30:50.597Z,1.97
2019-01-12T21:32:50.619Z,1.98
2019-01-12T21:34:49.859Z,2.00
2019-01-12T21:36:50.163Z,2.01
2019-01-12T21:38:50.181Z,2.03
2019-01-12T21:40:50.132Z,2.05
2019-01-12T21:42:50.079Z,2.07
2019-01-12T21:44:50.054Z,2.07
2019-01-12T21:46:50.239Z,2.08
2019-01-12T21:48:50.910Z,2.10
2019-01-12T21:50:49.916Z,2.10
2019-01-12T21:52:49.935Z,2.12
2019-01-12T21:54:49.896Z,2.13
2019-01-12T21:56:50.166Z,2.15
2019-01-12T21:58:50.242Z,2.15
2019-01-12T22:00:50.243Z,2.16
2019-01-12T22:02:50.310Z,2.15
2019-01-12T22:04:50.550Z,2.14
2019-01-12T22:06:49.742Z,2.15
2019-01-12T22:08:49.871Z,2.15
2019-01-12T22:10:49.873Z,2.15
2019-01-12T22:12:49.898Z,2.15
2019-01-12T22:14:49.872Z,2.15
2019-01-12T22:16:50.145Z,2.14
2019-01-12T22:18:50.130Z,2.14
2019-01-12T22:20:50.131Z,2.14
2019-01-12T22:22:50.154Z,2.14
2019-01-12T22:24:50.152Z,2.17
2019-01-12T22:26:50.270Z,2.17
2019-01-12T22:28:50.266Z,2.18
2019-01-12T22:30:50.225Z,2.20
2019-01-12T22:32:50.190Z,2.20
2019-01-12T22:34:50.455Z,2.20
2019-01-12T22:36:49.693Z,2.22
2019-01-12T22:38:50.665Z,2.22
2019-01-12T22:40:49.715Z,2.20
2019-01-12T22:42:49.785Z,2.20
2019-01-12T22:44:49.774Z,2.22
2019-01-12T22:46:50.002Z,2.21
2019-01-12T22:48:50.016Z,2.20
2019-01-12T22:50:49.999Z,2.20
2019-01-12T22:52:50.001Z,2.19
2019-01-12T22:54:49.984Z,2.19
2019-01-12T22:56:50.221Z,2.19
2019-01-12T22:58:50.241Z,2.19
2019-01-12T23:00:50.266Z,2.19
2019-01-12T23:02:50.313Z,2.17
2019-01-12T23:04:50.639Z,2.17
2019-01-12T23:06:49.846Z,2.13
2019-01-12T23:08:49.821Z,2.11
2019-01-12T23:10:49.858Z,2.11
2019-01-12T23:12:49.985Z,2.07
2019-01-12T23:14:49.960Z,2.07
2019-01-12T23:16:50.209Z,2.08
2019-01-12T23:18:50.164Z,2.08
2019-01-12T23:20:50.146Z,2.07
2019-01-12T23:22:50.198Z,2.08
2019-01-12T23:24:50.167Z,2.08
2019-01-12T23:26:50.323Z,2.10
2019-01-12T23:28:50.320Z,2.13
2019-01-12T23:30:50.282Z,2.15
2019-01-12T23:32:50.332Z,2.16
2019-01-12T23:34:49.691Z,2.17
2019-01-12T23:36:50.121Z,2.18
2019-01-12T23:38:50.069Z,2.19
2019-01-12T23:40:50.137Z,2.19
2019-01-12T23:42:50.077Z,2.21
2019-01-12T23:44:50.057Z,2.25
2019-01-12T23:46:50.086Z,2.27
2019-01-12T23:48:50.077Z,2.31
2019-01-12T23:50:50.095Z,2.37
2019-01-12T23:52:50.035Z,2.37
2019-01-12T23:54:49.995Z,2.37
2019-01-12T23:56:50.093Z,2.41
2019-01-12T23:58:50.125Z,2.41
